Time;durP1;ratioP1;P1;durP2;ratioP2;P2;SDS_P1;SDS_P2;PMS_P1;PMS_P2;Temp;Humidity;BMP_temperature;BMP_pressure;BME280_temperature;BME280_humidity;BME280_pressure;Samples;Min_cycle;Max_cycle;Signal;HPM_P1;HPM_P2
2022/06/30 00:01:22;;;;;;;8.27;5.00;;;;;;;;;;5044630;28;20045;-58
2022/06/30 00:03:48;;;;;;;6.15;4.53;;;;;;;;;;5045331;28;20081;-57
2022/06/30 00:06:14;;;;;;;6.78;4.80;;;;;;;;;;5044970;28;20045;-57
2022/06/30 00:08:40;;;;;;;5.88;4.18;;;;;;;;;;5045455;28;20060;-57
2022/06/30 00:11:07;;;;;;;6.72;4.13;;;;;;;;;;5044304;28;20060;-57
2022/06/30 00:13:35;;;;;;;6.50;3.97;;;;;;;;;;5045243;28;20647;-57
2022/06/30 00:16:01;;;;;;;5.00;4.32;;;;;;;;;;5036750;28;20044;-57
2022/06/30 00:18:27;;;;;;;9.10;4.60;;;;;;;;;;5044965;28;20487;-58
2022/06/30 00:20:53;;;;;;;22.33;4.60;;;;;;;;;;5045079;28;20124;-57
2022/06/30 00:23:20;;;;;;;9.63;4.25;;;;;;;;;;5044571;28;20477;-58
2022/06/30 00:25:46;;;;;;;4.65;3.97;;;;;;;;;;5044398;28;20556;-58
2022/06/30 00:28:12;;;;;;;5.63;4.25;;;;;;;;;;5045118;28;20037;-58
2022/06/30 00:30:38;;;;;;;7.85;4.30;;;;;;;;;;5044594;28;20045;-58
2022/06/30 00:33:04;;;;;;;4.85;4.00;;;;;;;;;;5044789;28;20175;-57
2022/06/30 00:35:30;;;;;;;4.93;4.10;;;;;;;;;;5044621;28;20549;-58
2022/06/30 00:37:57;;;;;;;4.50;3.67;;;;;;;;;;5044896;28;20116;-58
2022/06/30 00:40:23;;;;;;;8.85;4.40;;;;;;;;;;5043925;28;20276;-58
2022/06/30 00:42:49;;;;;;;6.25;4.45;;;;;;;;;;5046050;28;20048;-57
2022/06/30 00:45:15;;;;;;;5.05;4.25;;;;;;;;;;5048325;28;20495;-58
2022/06/30 00:47:41;;;;;;;7.88;4.75;;;;;;;;;;5048463;28;20541;-57
2022/06/30 00:50:08;;;;;;;8.30;4.25;;;;;;;;;;5048786;28;20123;-57
2022/06/30 00:52:35;;;;;;;4.70;4.10;;;;;;;;;;5047910;28;20406;-57
2022/06/30 00:55:02;;;;;;;7.20;4.33;;;;;;;;;;5048609;28;20033;-57
2022/06/30 00:57:30;;;;;;;8.53;4.40;;;;;;;;;;5046698;28;20276;-58
2022/06/30 00:59:57;;;;;;;6.35;4.05;;;;;;;;;;5048744;28;20040;-58
2022/06/30 01:02:23;;;;;;;5.40;3.53;;;;;;;;;;5047836;28;20430;-57
2022/06/30 01:04:52;;;;;;;5.57;3.92;;;;;;;;;;5048278;28;20109;-58
2022/06/30 01:07:18;;;;;;;5.95;3.83;;;;;;;;;;5048180;28;20084;-57
2022/06/30 01:12:41;;;;;;;6.30;3.95;;;;;;;;;;5047316;28;20089;-58
2022/06/30 01:15:08;;;;;;;8.30;4.25;;;;;;;;;;5048214;28;20155;-57
2022/06/30 01:17:34;;;;;;;6.20;3.90;;;;;;;;;;5047840;28;20183;-57
2022/06/30 01:20:00;;;;;;;8.43;4.22;;;;;;;;;;5047458;28;20037;-58
2022/06/30 01:22:27;;;;;;;7.03;4.13;;;;;;;;;;5047857;28;20068;-58
2022/06/30 01:24:53;;;;;;;4.78;4.00;;;;;;;;;;5047625;28;20191;-58
2022/06/30 01:27:19;;;;;;;6.07;3.70;;;;;;;;;;5046742;28;20076;-58
2022/06/30 01:29:45;;;;;;;4.97;3.88;;;;;;;;;;5047879;28;20064;-58
2022/06/30 01:32:11;;;;;;;10.48;4.30;;;;;;;;;;5048210;28;20080;-57
2022/06/30 01:34:38;;;;;;;10.30;4.25;;;;;;;;;;5047277;28;20371;-57
2022/06/30 01:37:04;;;;;;;7.28;4.65;;;;;;;;;;5047490;28;20506;-58
2022/06/30 01:39:30;;;;;;;6.55;4.07;;;;;;;;;;5032675;28;20056;-57
2022/06/30 01:41:57;;;;;;;6.97;4.10;;;;;;;;;;5039156;28;20084;-58
2022/06/30 01:44:23;;;;;;;5.03;3.60;;;;;;;;;;5047063;28;20049;-58
2022/06/30 01:46:49;;;;;;;6.38;4.30;;;;;;;;;;5047529;28;20106;-58
2022/06/30 01:49:16;;;;;;;5.65;4.55;;;;;;;;;;5047076;28;20128;-57
2022/06/30 01:51:42;;;;;;;5.85;4.53;;;;;;;;;;5047686;28;20791;-57
2022/06/30 01:54:09;;;;;;;6.20;3.97;;;;;;;;;;5047049;28;20048;-57
2022/06/30 01:56:35;;;;;;;5.78;3.80;;;;;;;;;;5046047;28;20091;-57
2022/06/30 01:59:02;;;;;;;5.72;4.18;;;;;;;;;;5047537;28;20124;-57
2022/06/30 02:01:28;;;;;;;7.35;4.30;;;;;;;;;;5046490;28;20544;-57
2022/06/30 02:03:54;;;;;;;8.45;4.63;;;;;;;;;;5047127;28;20327;-58
2022/06/30 02:06:20;;;;;;;6.30;4.10;;;;;;;;;;5046697;28;20087;-57
2022/06/30 02:08:46;;;;;;;7.85;4.15;;;;;;;;;;5046963;28;20084;-58
2022/06/30 02:11:12;;;;;;;8.45;4.38;;;;;;;;;;5046897;28;20053;-57
2022/06/30 02:13:39;;;;;;;4.57;3.55;;;;;;;;;;5047621;28;20041;-58
2022/06/30 02:16:05;;;;;;;8.27;4.63;;;;;;;;;;5046466;28;20033;-58
2022/06/30 02:18:31;;;;;;;7.13;4.35;;;;;;;;;;5047007;28;20402;-58
2022/06/30 02:20:58;;;;;;;5.55;4.25;;;;;;;;;;5028860;28;20471;-57
2022/06/30 02:23:24;;;;;;;10.60;4.68;;;;;;;;;;5046245;28;20053;-57
2022/06/30 02:25:50;;;;;;;7.40;4.15;;;;;;;;;;5046175;28;20570;-57
2022/06/30 02:28:16;;;;;;;7.22;4.50;;;;;;;;;;5046599;28;20132;-58
2022/06/30 02:30:42;;;;;;;5.38;4.25;;;;;;;;;;5046223;28;20128;-58
2022/06/30 02:33:09;;;;;;;7.10;4.60;;;;;;;;;;5047224;28;20045;-58
2022/06/30 02:35:35;;;;;;;7.85;4.40;;;;;;;;;;5046060;28;20040;-57
2022/06/30 02:38:08;;;;;;;6.38;4.28;;;;;;;;;;5046350;28;20151;-57
2022/06/30 02:40:34;;;;;;;6.47;3.95;;;;;;;;;;5027126;28;20049;-57
2022/06/30 02:43:01;;;;;;;5.60;4.25;;;;;;;;;;5027980;28;20147;-57
2022/06/30 02:45:27;;;;;;;5.82;4.13;;;;;;;;;;5046202;28;20044;-57
2022/06/30 02:47:55;;;;;;;4.97;4.18;;;;;;;;;;5046301;28;20080;-58
2022/06/30 02:50:21;;;;;;;;;;;;;;;;;;5046576;28;20167;-57
2022/06/30 02:52:47;;;;;;;4.95;3.85;;;;;;;;;;5046050;28;20003;-57
2022/06/30 02:55:14;;;;;;;5.22;3.83;;;;;;;;;;5045471;28;20949;-56
2022/06/30 02:57:40;;;;;;;6.85;4.60;;;;;;;;;;5045820;28;20036;-57
2022/06/30 03:00:07;;;;;;;4.90;4.05;;;;;;;;;;5046092;28;20506;-57
2022/06/30 03:02:33;;;;;;;8.85;4.03;;;;;;;;;;5045330;28;20059;-57
2022/06/30 03:04:59;;;;;;;6.55;4.40;;;;;;;;;;5045790;28;20514;-57
2022/06/30 03:07:25;;;;;;;6.43;3.67;;;;;;;;;;5044506;28;20072;-58
2022/06/30 03:09:52;;;;;;;6.95;3.95;;;;;;;;;;5045144;28;20064;-58
2022/06/30 03:12:18;;;;;;;5.30;4.18;;;;;;;;;;5045405;28;20045;-57
2022/06/30 03:14:44;;;;;;;6.38;3.92;;;;;;;;;;5045746;28;20040;-58
2022/06/30 03:17:10;;;;;;;6.38;4.13;;;;;;;;;;5046410;28;20828;-57
2022/06/30 03:19:36;;;;;;;7.05;4.22;;;;;;;;;;5045328;28;20044;-57
2022/06/30 03:22:02;;;;;;;5.95;3.97;;;;;;;;;;5045860;28;20036;-57
2022/06/30 03:24:28;;;;;;;4.85;4.35;;;;;;;;;;5045302;28;20427;-57
2022/06/30 03:26:54;;;;;;;6.00;4.20;;;;;;;;;;5044750;28;20037;-57
2022/06/30 03:29:21;;;;;;;5.43;4.10;;;;;;;;;;5045094;28;20051;-58
2022/06/30 03:31:47;;;;;;;6.63;4.43;;;;;;;;;;5045551;28;20047;-58
2022/06/30 03:34:13;;;;;;;9.23;4.72;;;;;;;;;;5045387;28;20041;-57
2022/06/30 03:36:39;;;;;;;5.43;3.97;;;;;;;;;;5045848;28;20506;-57
2022/06/30 03:39:05;;;;;;;7.32;4.57;;;;;;;;;;5045363;28;20483;-57
2022/06/30 03:41:32;;;;;;;7.53;3.72;;;;;;;;;;5044072;28;20043;-57
2022/06/30 03:43:58;;;;;;;6.40;4.47;;;;;;;;;;5045172;28;20076;-57
2022/06/30 03:46:24;;;;;;;10.38;5.55;;;;;;;;;;5045153;28;20111;-57
2022/06/30 03:48:50;;;;;;;7.55;4.25;;;;;;;;;;5045160;28;20052;-57
2022/06/30 03:51:16;;;;;;;11.15;4.53;;;;;;;;;;5045433;28;20116;-58
2022/06/30 03:53:43;;;;;;;6.72;4.25;;;;;;;;;;5027384;28;20045;-58
2022/06/30 03:56:09;;;;;;;6.30;4.13;;;;;;;;;;5044774;28;20041;-58
2022/06/30 03:58:35;;;;;;;6.55;3.78;;;;;;;;;;5044914;28;20051;-57
2022/06/30 04:01:01;;;;;;;6.18;3.92;;;;;;;;;;5045271;28;20065;-57
2022/06/30 04:03:28;;;;;;;6.53;4.03;;;;;;;;;;5044745;28;20103;-57
2022/06/30 04:05:54;;;;;;;6.35;4.22;;;;;;;;;;5045266;28;20163;-58
2022/06/30 04:08:20;;;;;;;9.05;4.50;;;;;;;;;;5026675;28;20053;-57
2022/06/30 04:10:46;;;;;;;6.65;3.92;;;;;;;;;;5044294;28;20506;-57
2022/06/30 04:13:13;;;;;;;8.43;4.30;;;;;;;;;;5045449;28;20033;-57
2022/06/30 04:15:39;;;;;;;7.57;4.20;;;;;;;;;;5045711;28;20041;-57
2022/06/30 04:18:05;;;;;;;8.48;4.05;;;;;;;;;;5046750;28;20045;-57
2022/06/30 04:20:31;;;;;;;5.63;4.25;;;;;;;;;;5049190;28;20040;-57
2022/06/30 04:22:57;;;;;;;5.95;4.28;;;;;;;;;;5048335;28;20041;-57
2022/06/30 04:25:23;;;;;;;7.53;4.72;;;;;;;;;;5047825;28;20600;-57
2022/06/30 04:27:51;;;;;;;8.15;4.13;;;;;;;;;;5049070;28;20126;-57
2022/06/30 04:32:37;;;;;;;5.18;4.25;;;;;;;;;;5048480;28;20118;-58
2022/06/30 04:33:05;;;;;;;8.45;4.05;;;;;;;;;;5048161;28;20048;-57
2022/06/30 04:35:31;;;;;;;9.73;5.22;;;;;;;;;;5048441;28;20418;-57
2022/06/30 04:37:58;;;;;;;6.50;4.18;;;;;;;;;;5049055;28;20057;-58
2022/06/30 04:43:09;;;;;;;7.13;4.28;;;;;;;;;;5048447;28;20077;-57
2022/06/30 04:45:35;;;;;;;9.70;4.30;;;;;;;;;;5048819;28;20041;-57
2022/06/30 04:48:02;;;;;;;7.07;3.45;;;;;;;;;;5048693;28;20509;-57
2022/06/30 04:50:29;;;;;;;7.18;3.90;;;;;;;;;;5048402;28;20079;-57
2022/06/30 04:52:55;;;;;;;7.32;3.92;;;;;;;;;;5048555;28;20094;-57
2022/06/30 04:55:21;;;;;;;14.27;5.03;;;;;;;;;;5047811;28;20045;-56
2022/06/30 04:57:47;;;;;;;7.65;4.05;;;;;;;;;;5047689;28;20048;-58
2022/06/30 05:00:14;;;;;;;6.38;4.38;;;;;;;;;;5048514;28;20099;-56
2022/06/30 05:02:40;;;;;;;8.35;4.70;;;;;;;;;;5048180;28;20051;-58
2022/06/30 05:05:07;;;;;;;11.27;4.32;;;;;;;;;;5047984;28;20114;-58
2022/06/30 05:07:33;;;;;;;5.45;4.15;;;;;;;;;;5047757;28;20461;-57
2022/06/30 05:09:59;;;;;;;4.43;3.75;;;;;;;;;;5046790;28;20166;-58
2022/06/30 05:12:25;;;;;;;6.32;4.45;;;;;;;;;;5029079;28;20056;-57
2022/06/30 05:14:51;;;;;;;6.03;4.53;;;;;;;;;;5045062;28;20087;-56
2022/06/30 05:17:17;;;;;;;6.20;4.22;;;;;;;;;;5047735;28;20081;-57
2022/06/30 05:19:43;;;;;;;8.95;4.45;;;;;;;;;;5048099;28;20029;-58
2022/06/30 05:22:10;;;;;;;8.18;4.78;;;;;;;;;;5048169;28;20045;-57
2022/06/30 05:27:21;;;;;;;6.78;4.55;;;;;;;;;;5040085;28;20064;-58
2022/06/30 05:29:47;;;;;;;10.00;4.45;;;;;;;;;;5044973;28;20041;-59
2022/06/30 05:32:13;;;;;;;8.95;4.60;;;;;;;;;;5045971;28;20045;-59
2022/06/30 05:34:40;;;;;;;9.40;5.28;;;;;;;;;;5046954;28;20119;-59
2022/06/30 05:37:07;;;;;;;7.28;4.70;;;;;;;;;;5045788;28;20040;-59
2022/06/30 05:39:33;;;;;;;7.00;4.50;;;;;;;;;;5043805;28;20044;-58
2022/06/30 05:42:00;;;;;;;8.95;4.28;;;;;;;;;;5046137;28;20056;-58
2022/06/30 05:44:27;;;;;;;7.20;4.95;;;;;;;;;;5044658;28;20044;-58
2022/06/30 05:46:54;;;;;;;7.20;4.90;;;;;;;;;;5044814;28;20041;-59
2022/06/30 05:49:21;;;;;;;9.17;5.07;;;;;;;;;;5046856;28;20041;-59
2022/06/30 05:51:47;;;;;;;8.70;4.85;;;;;;;;;;5045917;28;20287;-58
2022/06/30 05:54:13;;;;;;;5.95;4.80;;;;;;;;;;5046709;28;20094;-58
2022/06/30 05:56:39;;;;;;;9.13;4.82;;;;;;;;;;5046336;28;20040;-58
2022/06/30 05:59:05;;;;;;;8.32;4.82;;;;;;;;;;5045820;28;20499;-58
2022/06/30 06:01:31;;;;;;;11.50;5.25;;;;;;;;;;5046220;28;20037;-58
2022/06/30 06:03:57;;;;;;;8.70;4.97;;;;;;;;;;5046541;28;20094;-58
2022/06/30 06:06:24;;;;;;;8.57;5.10;;;;;;;;;;5046474;28;20033;-58
2022/06/30 06:08:50;;;;;;;9.73;4.95;;;;;;;;;;5046376;28;20407;-59
2022/06/30 06:11:16;;;;;;;6.60;4.75;;;;;;;;;;5045452;28;20060;-58
2022/06/30 06:13:42;;;;;;;6.88;4.68;;;;;;;;;;5046054;28;20044;-57
2022/06/30 06:16:08;;;;;;;8.00;5.15;;;;;;;;;;5046427;28;20044;-58
2022/06/30 06:18:35;;;;;;;13.23;5.10;;;;;;;;;;5041689;28;20043;-58
2022/06/30 06:21:01;;;;;;;7.47;5.28;;;;;;;;;;5027976;28;20040;-58
2022/06/30 06:23:27;;;;;;;11.38;5.47;;;;;;;;;;5045963;28;20103;-57
2022/06/30 06:25:53;;;;;;;6.65;4.90;;;;;;;;;;5045566;28;20045;-58
2022/06/30 06:31:04;;;;;;;9.88;5.32;;;;;;;;;;5043792;28;20048;-57
2022/06/30 06:33:30;;;;;;;9.55;6.13;;;;;;;;;;5045562;28;20384;-58
2022/06/30 06:35:56;;;;;;;7.97;5.03;;;;;;;;;;5042287;28;20036;-58
2022/06/30 06:38:22;;;;;;;10.18;5.07;;;;;;;;;;5041978;28;20041;-58
2022/06/30 06:40:49;;;;;;;9.05;5.40;;;;;;;;;;5044835;28;20178;-58
2022/06/30 06:43:16;;;;;;;9.05;5.65;;;;;;;;;;5045680;28;20479;-58
2022/06/30 06:45:42;;;;;;;7.22;5.15;;;;;;;;;;5028282;28;20045;-58
2022/06/30 06:48:08;;;;;;;9.02;6.10;;;;;;;;;;5046130;28;20028;-57
2022/06/30 06:50:34;;;;;;;10.27;5.30;;;;;;;;;;5044918;28;20044;-58
2022/06/30 06:53:03;;;;;;;6.47;5.43;;;;;;;;;;5028267;28;20095;-57
2022/06/30 06:55:29;;;;;;;8.20;5.28;;;;;;;;;;5041116;28;20029;-58
2022/06/30 06:57:56;;;;;;;14.43;5.60;;;;;;;;;;5045469;28;20040;-58
2022/06/30 07:00:22;;;;;;;10.18;5.30;;;;;;;;;;5045385;28;20041;-58
2022/06/30 07:02:48;;;;;;;7.65;4.90;;;;;;;;;;5045466;28;20117;-58
2022/06/30 07:05:14;;;;;;;9.90;5.60;;;;;;;;;;5045323;28;20053;-57
2022/06/30 07:07:40;;;;;;;9.57;6.53;;;;;;;;;;5045418;28;20148;-58
2022/06/30 07:10:07;;;;;;;9.05;6.43;;;;;;;;;;5044582;28;20114;-58
2022/06/30 07:12:34;;;;;;;10.02;6.30;;;;;;;;;;5045232;28;20049;-57
2022/06/30 07:15:00;;;;;;;9.88;6.65;;;;;;;;;;5045017;28;20045;-57
2022/06/30 07:17:26;;;;;;;8.80;6.22;;;;;;;;;;5045001;28;20040;-58
2022/06/30 07:19:53;;;;;;;8.82;5.65;;;;;;;;;;5045437;28;20045;-58
2022/06/30 07:22:19;;;;;;;10.25;6.68;;;;;;;;;;5045367;28;20487;-58
2022/06/30 07:24:45;;;;;;;9.15;6.65;;;;;;;;;;5044046;28;20045;-58
2022/06/30 07:27:11;;;;;;;11.32;6.38;;;;;;;;;;5042925;28;20033;-58
2022/06/30 07:29:38;;;;;;;10.30;6.18;;;;;;;;;;5044847;28;20036;-58
2022/06/30 07:32:04;;;;;;;9.18;6.60;;;;;;;;;;5044820;28;20725;-58
2022/06/30 07:34:30;;;;;;;11.70;6.95;;;;;;;;;;5044831;28;20052;-58
2022/06/30 07:36:56;;;;;;;9.80;6.88;;;;;;;;;;5045220;28;20043;-58
2022/06/30 07:39:22;;;;;;;8.07;6.32;;;;;;;;;;5043918;28;20110;-58
2022/06/30 07:41:48;;;;;;;8.80;7.18;;;;;;;;;;5044942;28;20044;-58
2022/06/30 07:44:14;;;;;;;8.18;6.43;;;;;;;;;;5043977;28;20508;-58
2022/06/30 07:46:41;;;;;;;19.70;6.80;;;;;;;;;;5045373;28;20051;-58
2022/06/30 07:49:07;;;;;;;7.72;6.78;;;;;;;;;;5044661;28;20033;-58
2022/06/30 07:51:33;;;;;;;8.73;6.68;;;;;;;;;;5044781;28;20040;-58
2022/06/30 07:53:59;;;;;;;9.45;7.78;;;;;;;;;;5044472;28;20048;-58
2022/06/30 07:56:25;;;;;;;9.10;7.30;;;;;;;;;;5043687;28;20556;-58
2022/06/30 07:58:52;;;;;;;10.18;7.03;;;;;;;;;;5044840;28;20528;-58
2022/06/30 08:01:19;;;;;;;9.65;6.57;;;;;;;;;;5044842;28;20115;-58
2022/06/30 08:03:45;;;;;;;12.10;8.15;;;;;;;;;;5044358;28;20051;-58
2022/06/30 08:06:12;;;;;;;8.25;7.05;;;;;;;;;;5044939;28;20085;-58
2022/06/30 08:08:38;;;;;;;9.20;7.40;;;;;;;;;;5044736;28;20045;-57
2022/06/30 08:11:04;;;;;;;10.68;7.53;;;;;;;;;;5025822;28;20501;-57
2022/06/30 08:13:31;;;;;;;10.65;8.35;;;;;;;;;;5044426;28;20108;-57
2022/06/30 08:15:57;;;;;;;9.90;7.05;;;;;;;;;;5044270;28;20032;-57
2022/06/30 08:18:23;;;;;;;12.20;8.68;;;;;;;;;;5044490;28;20041;-57
2022/06/30 08:20:49;;;;;;;11.60;7.82;;;;;;;;;;5044130;28;20087;-57
2022/06/30 08:23:15;;;;;;;11.65;8.07;;;;;;;;;;5044076;28;20475;-58
2022/06/30 08:25:42;;;;;;;11.93;8.85;;;;;;;;;;5043813;28;20103;-57
2022/06/30 08:28:08;;;;;;;11.55;8.50;;;;;;;;;;5044607;28;20080;-57
2022/06/30 08:30:35;;;;;;;11.02;8.43;;;;;;;;;;5044523;28;20041;-57
2022/06/30 08:33:01;;;;;;;10.75;8.38;;;;;;;;;;5044206;28;20403;-57
2022/06/30 08:35:27;;;;;;;11.20;8.90;;;;;;;;;;5043997;28;20069;-58
2022/06/30 08:37:54;;;;;;;17.08;9.75;;;;;;;;;;5044516;28;20041;-58
2022/06/30 08:43:09;;;;;;;13.65;9.00;;;;;;;;;;5044167;28;20044;-57
2022/06/30 08:45:35;;;;;;;15.77;8.80;;;;;;;;;;5043828;28;20053;-58
2022/06/30 08:48:02;;;;;;;11.85;8.65;;;;;;;;;;5044330;28;20083;-57
2022/06/30 08:50:28;;;;;;;11.73;8.90;;;;;;;;;;5044026;28;20128;-58
2022/06/30 08:52:56;;;;;;;14.77;10.02;;;;;;;;;;5043808;28;20064;-57
2022/06/30 08:55:29;;;;;;;13.35;10.30;;;;;;;;;;5042907;28;20040;-58
2022/06/30 08:57:58;;;;;;;12.43;9.10;;;;;;;;;;5024732;28;20530;-57
2022/06/30 09:00:24;;;;;;;13.70;9.82;;;;;;;;;;5043882;28;20067;-57
2022/06/30 09:02:50;;;;;;;12.55;9.68;;;;;;;;;;5044062;28;20049;-57
2022/06/30 09:05:16;;;;;;;12.40;10.25;;;;;;;;;;5047110;28;20049;-58
2022/06/30 09:07:43;;;;;;;14.00;10.02;;;;;;;;;;5047488;28;20114;-57
2022/06/30 09:10:09;;;;;;;15.57;10.10;;;;;;;;;;5047184;28;20148;-57
2022/06/30 09:12:35;;;;;;;14.15;10.25;;;;;;;;;;5047066;28;20057;-58
2022/06/30 09:15:01;;;;;;;14.18;10.48;;;;;;;;;;5047698;28;20033;-57
2022/06/30 09:17:29;;;;;;;16.70;11.30;;;;;;;;;;5047174;28;20049;-58
2022/06/30 09:19:58;;;;;;;14.02;10.68;;;;;;;;;;5026902;28;20863;-57
2022/06/30 09:22:27;;;;;;;15.63;11.48;;;;;;;;;;5046936;28;20059;-58
2022/06/30 09:24:54;;;;;;;11.80;10.52;;;;;;;;;;5045705;28;20062;-58
2022/06/30 09:27:21;;;;;;;14.07;11.10;;;;;;;;;;5047133;28;20499;-57
2022/06/30 09:29:49;;;;;;;15.77;11.20;;;;;;;;;;5046940;28;20410;-58
2022/06/30 09:32:15;;;;;;;14.38;10.98;;;;;;;;;;5046807;28;20055;-57
2022/06/30 09:34:42;;;;;;;15.02;11.20;;;;;;;;;;5047445;28;20037;-57
2022/06/30 09:37:15;;;;;;;15.52;10.43;;;;;;;;;;5047437;28;20463;-57
2022/06/30 09:39:43;;;;;;;14.57;10.73;;;;;;;;;;5043925;28;20486;-58
2022/06/30 09:42:09;;;;;;;11.27;9.23;;;;;;;;;;5047428;28;20029;-58
2022/06/30 09:44:36;;;;;;;17.35;10.25;;;;;;;;;;5047299;28;20037;-57
2022/06/30 09:47:02;;;;;;;10.60;8.50;;;;;;;;;;5046736;28;20036;-57
2022/06/30 09:49:30;;;;;;;13.95;9.68;;;;;;;;;;5046516;28;20049;-57
2022/06/30 09:51:56;;;;;;;11.10;9.60;;;;;;;;;;5046931;28;20033;-58
2022/06/30 09:54:22;;;;;;;16.85;11.05;;;;;;;;;;5046030;28;20049;-57
2022/06/30 09:57:02;;;;;;;14.95;11.00;;;;;;;;;;5046492;28;20055;-58
2022/06/30 09:59:28;;;;;;;16.92;10.98;;;;;;;;;;5046392;28;20537;-58
2022/06/30 10:01:55;;;;;;;15.35;9.90;;;;;;;;;;5046652;28;20044;-58
2022/06/30 10:04:21;;;;;;;12.15;9.07;;;;;;;;;;5046237;28;20045;-58
2022/06/30 10:06:47;;;;;;;12.30;9.23;;;;;;;;;;5046860;28;20036;-58
2022/06/30 10:09:20;;;;;;;16.70;8.70;;;;;;;;;;5045414;28;20147;-58
2022/06/30 10:11:47;;;;;;;16.33;9.85;;;;;;;;;;5028383;28;20076;-58
2022/06/30 10:14:15;;;;;;;12.65;9.15;;;;;;;;;;5046222;28;20033;-58
2022/06/30 10:16:42;;;;;;;14.77;10.55;;;;;;;;;;5046250;28;20028;-58
2022/06/30 10:19:10;;;;;;;12.10;9.20;;;;;;;;;;5047083;28;20033;-57
2022/06/30 10:21:38;;;;;;;12.73;9.02;;;;;;;;;;5046215;28;20166;-58
2022/06/30 10:24:04;;;;;;;;;;;;;;;;;;5045928;28;20040;-57
2022/06/30 10:29:15;;;;;;;7.80;6.57;;;;;;;;;;5028276;28;20057;-58
2022/06/30 10:31:51;;;;;;;9.88;6.65;;;;;;;;;;5046039;28;20102;-57
2022/06/30 10:34:26;;;;;;;10.98;6.68;;;;;;;;;;5045973;28;20490;-58
2022/06/30 10:37:00;;;;;;;11.02;7.07;;;;;;;;;;5045555;28;20124;-58
2022/06/30 10:39:36;;;;;;;8.82;6.60;;;;;;;;;;5027444;28;20048;-58
2022/06/30 10:42:03;;;;;;;13.18;7.30;;;;;;;;;;5045681;28;20040;-57
2022/06/30 10:44:29;;;;;;;11.23;6.32;;;;;;;;;;5045987;28;20083;-58
2022/06/30 10:46:55;;;;;;;8.60;5.88;;;;;;;;;;5045663;28;20040;-58
2022/06/30 10:49:23;;;;;;;7.07;5.63;;;;;;;;;;5045350;28;20053;-57
2022/06/30 10:51:49;;;;;;;;;;;;;;;;;;5045725;28;20072;-58
2022/06/30 10:54:29;;;;;;;6.45;4.90;;;;;;;;;;5044660;28;20021;-58
2022/06/30 10:56:56;;;;;;;6.03;4.47;;;;;;;;;;5040195;28;20556;-57
2022/06/30 10:59:31;;;;;;;7.47;5.05;;;;;;;;;;5037638;28;20067;-57
2022/06/30 11:02:08;;;;;;;7.80;4.05;;;;;;;;;;5040855;28;20037;-57
2022/06/30 11:04:35;;;;;;;14.27;4.78;;;;;;;;;;5024665;28;20049;-58
2022/06/30 11:07:02;;;;;;;7.60;4.80;;;;;;;;;;5042627;28;20044;-57
2022/06/30 11:09:44;;;;;;;11.10;5.07;;;;;;;;;;5041427;28;20060;-58
2022/06/30 11:12:12;;;;;;;7.60;5.57;;;;;;;;;;5042322;28;20486;-57
2022/06/30 11:14:41;;;;;;;8.32;5.50;;;;;;;;;;5042676;28;20036;-58
2022/06/30 11:17:14;;;;;;;9.38;6.25;;;;;;;;;;5043107;28;20033;-58
2022/06/30 11:19:40;;;;;;;11.38;7.10;;;;;;;;;;5042938;28;20083;-58
2022/06/30 11:22:08;;;;;;;15.93;5.80;;;;;;;;;;5040767;28;20774;-57
2022/06/30 11:24:38;;;;;;;6.68;4.45;;;;;;;;;;5041230;28;20053;-58
2022/06/30 11:27:17;;;;;;;5.32;3.63;;;;;;;;;;5040615;28;20033;-58
2022/06/30 11:29:45;;;;;;;9.50;3.92;;;;;;;;;;5041297;28;20055;-58
2022/06/30 11:32:12;;;;;;;8.32;4.25;;;;;;;;;;5042563;28;20131;-58
2022/06/30 11:34:40;;;;;;;7.18;4.50;;;;;;;;;;5035982;28;20045;-58
2022/06/30 11:37:08;;;;;;;8.88;5.03;;;;;;;;;;5037303;28;20510;-58
2022/06/30 11:39:34;;;;;;;8.70;5.55;;;;;;;;;;5040133;28;20187;-58
2022/06/30 11:42:06;;;;;;;11.13;6.30;;;;;;;;;;5042532;28;20048;-58
2022/06/30 11:44:33;;;;;;;7.45;5.20;;;;;;;;;;5033683;28;20048;-59
2022/06/30 11:47:01;;;;;;;7.90;4.28;;;;;;;;;;5042910;28;20060;-58
2022/06/30 11:49:39;;;;;;;8.75;4.40;;;;;;;;;;5042644;28;20099;-58
2022/06/30 11:52:15;;;;;;;6.00;4.10;;;;;;;;;;5040462;28;20533;-59
2022/06/30 11:54:43;;;;;;;5.25;3.53;;;;;;;;;;5042440;28;20151;-58
2022/06/30 11:57:09;;;;;;;8.57;5.72;;;;;;;;;;5024274;28;20407;-58
2022/06/30 11:59:36;;;;;;;8.40;5.63;;;;;;;;;;5042789;28;20524;-58
2022/06/30 12:02:04;;;;;;;9.13;5.20;;;;;;;;;;5042394;28;20049;-59
2022/06/30 12:04:30;;;;;;;10.15;6.25;;;;;;;;;;5040754;28;20049;-58
2022/06/30 12:06:56;;;;;;;10.43;6.65;;;;;;;;;;5042545;28;20049;-58
2022/06/30 12:09:23;;;;;;;9.73;6.10;;;;;;;;;;5040874;28;20052;-58
2022/06/30 12:11:51;;;;;;;11.93;5.40;;;;;;;;;;5024552;28;20053;-59
2022/06/30 12:14:18;;;;;;;8.23;6.07;;;;;;;;;;5041497;28;20041;-59
2022/06/30 12:16:45;;;;;;;;;;;;;;;;;;5041324;28;20090;-58
2022/06/30 12:19:15;;;;;;;12.00;5.38;;;;;;;;;;5042070;28;20007;-58
2022/06/30 12:21:42;;;;;;;7.95;5.55;;;;;;;;;;5041035;28;20051;-58
2022/06/30 12:24:09;;;;;;;9.65;5.65;;;;;;;;;;5040405;28;20059;-59
2022/06/30 12:26:35;;;;;;;8.27;5.50;;;;;;;;;;5039335;28;20040;-58
2022/06/30 12:29:11;;;;;;;5.50;4.38;;;;;;;;;;5042015;28;20160;-58
2022/06/30 12:31:37;;;;;;;11.63;4.72;;;;;;;;;;5036855;28;20624;-59
2022/06/30 12:34:03;;;;;;;7.22;3.28;;;;;;;;;;5040483;28;20045;-59
2022/06/30 12:36:31;;;;;;;6.05;3.40;;;;;;;;;;5043307;28;20048;-58
2022/06/30 12:38:57;;;;;;;;;;;;;;;;;;5045459;28;20045;-59
2022/06/30 12:41:24;;;;;;;9.55;3.10;;;;;;;;;;5048366;28;20144;-59
2022/06/30 12:43:52;;;;;;;10.20;2.97;;;;;;;;;;5048277;28;20041;-59
2022/06/30 12:46:18;;;;;;;8.45;2.83;;;;;;;;;;5048185;28;20073;-59
2022/06/30 12:48:44;;;;;;;6.13;2.65;;;;;;;;;;5046590;28;20071;-58
2022/06/30 12:51:12;;;;;;;8.57;3.20;;;;;;;;;;5048639;28;20044;-59
2022/06/30 12:53:39;;;;;;;6.40;3.95;;;;;;;;;;5047885;28;20037;-59
2022/06/30 12:56:05;;;;;;;;;;;;;;;;;;5048577;28;20765;-59
2022/06/30 12:58:50;;;;;;;7.03;4.30;;;;;;;;;;5047586;28;20016;-59
2022/06/30 13:01:17;;;;;;;4.85;3.65;;;;;;;;;;5047454;28;20072;-59
2022/06/30 13:03:51;;;;;;;7.45;4.50;;;;;;;;;;5004381;28;20405;-58
2022/06/30 13:06:17;;;;;;;8.07;4.70;;;;;;;;;;5045275;28;20064;-59
2022/06/30 13:08:46;;;;;;;8.07;4.68;;;;;;;;;;5045897;28;20052;-59
2022/06/30 13:11:15;;;;;;;11.73;6.40;;;;;;;;;;5048280;28;20091;-57
2022/06/30 13:13:42;;;;;;;9.88;6.80;;;;;;;;;;5034923;28;20423;-58
2022/06/30 13:16:08;;;;;;;16.08;7.07;;;;;;;;;;5044682;28;20494;-58
2022/06/30 13:18:35;;;;;;;11.98;6.18;;;;;;;;;;5045465;28;20057;-58
2022/06/30 13:21:01;;;;;;;8.68;6.40;;;;;;;;;;5044828;28;20045;-57
2022/06/30 13:23:27;;;;;;;9.70;5.60;;;;;;;;;;5043995;28;20064;-58
2022/06/30 13:25:53;;;;;;;9.85;6.95;;;;;;;;;;5044490;28;20044;-59
2022/06/30 13:28:19;;;;;;;10.30;5.65;;;;;;;;;;5041713;28;20140;-59
2022/06/30 13:30:45;;;;;;;9.27;5.60;;;;;;;;;;5044574;28;20056;-58
2022/06/30 13:33:12;;;;;;;9.05;6.78;;;;;;;;;;5045520;28;20060;-58
2022/06/30 13:35:39;;;;;;;9.07;6.43;;;;;;;;;;5044845;28;20037;-58
2022/06/30 13:38:05;;;;;;;11.30;4.90;;;;;;;;;;5026566;28;20129;-59
2022/06/30 13:40:31;;;;;;;10.50;5.22;;;;;;;;;;5044019;28;20041;-58
2022/06/30 13:42:58;;;;;;;9.50;4.88;;;;;;;;;;5044922;28;20037;-59
2022/06/30 13:45:24;;;;;;;9.80;6.65;;;;;;;;;;5042972;28;20057;-58
2022/06/30 13:47:50;;;;;;;10.45;7.20;;;;;;;;;;5026328;28;20647;-59
2022/06/30 13:50:16;;;;;;;21.05;6.72;;;;;;;;;;5040042;28;20418;-59
2022/06/30 13:52:43;;;;;;;10.95;6.82;;;;;;;;;;5024092;28;20049;-58
2022/06/30 13:55:09;;;;;;;14.93;6.75;;;;;;;;;;5043884;28;20045;-58
2022/06/30 13:57:35;;;;;;;13.25;6.03;;;;;;;;;;5040802;28;20458;-58
2022/06/30 14:00:03;;;;;;;8.25;5.65;;;;;;;;;;5043173;28;20145;-58
2022/06/30 14:02:29;;;;;;;;;;;;;;;;;;5044710;28;20045;-58
2022/06/30 14:04:56;;;;;;;8.07;5.38;;;;;;;;;;5044679;28;19978;-58
2022/06/30 14:07:22;;;;;;;8.57;6.15;;;;;;;;;;5043640;28;20056;-59
2022/06/30 14:09:48;;;;;;;11.57;6.25;;;;;;;;;;5043422;28;20131;-59
2022/06/30 14:12:14;;;;;;;6.43;5.03;;;;;;;;;;5044142;28;20506;-59
2022/06/30 14:14:41;;;;;;;9.32;5.25;;;;;;;;;;5043624;28;20084;-58
2022/06/30 14:17:07;;;;;;;10.95;5.57;;;;;;;;;;5042910;28;20482;-58
2022/06/30 14:19:33;;;;;;;10.25;4.82;;;;;;;;;;5042892;28;20037;-57
2022/06/30 14:21:59;;;;;;;7.80;4.93;;;;;;;;;;5042760;28;20120;-58
2022/06/30 14:24:26;;;;;;;8.82;4.93;;;;;;;;;;5034327;28;20057;-58
2022/06/30 14:26:53;;;;;;;9.98;4.55;;;;;;;;;;5022388;28;20053;-58
2022/06/30 14:29:19;;;;;;;7.75;4.35;;;;;;;;;;5043954;28;20044;-58
2022/06/30 14:31:45;;;;;;;6.60;4.07;;;;;;;;;;5043444;28;20509;-58
2022/06/30 14:34:11;;;;;;;7.55;4.00;;;;;;;;;;5044075;28;20128;-57
2022/06/30 14:36:38;;;;;;;7.40;4.13;;;;;;;;;;5042328;28;20045;-58
2022/06/30 14:39:04;;;;;;;10.82;4.22;;;;;;;;;;5042436;28;20048;-58
2022/06/30 14:44:15;;;;;;;9.27;7.03;;;;;;;;;;5042902;28;20056;-59
2022/06/30 14:46:41;;;;;;;11.05;6.80;;;;;;;;;;5043497;28;20492;-57
2022/06/30 14:49:07;;;;;;;10.50;6.50;;;;;;;;;;5042874;28;20132;-58
2022/06/30 14:51:33;;;;;;;9.73;5.85;;;;;;;;;;5025483;28;20044;-58
2022/06/30 14:53:59;;;;;;;7.70;5.30;;;;;;;;;;5043160;28;20045;-58
2022/06/30 14:56:25;;;;;;;11.38;5.53;;;;;;;;;;5043459;28;20066;-58
2022/06/30 14:58:51;;;;;;;10.13;5.18;;;;;;;;;;5043042;28;20086;-58